createdAt,value
2018-02-23T00:00:38.542Z,1.90
2018-02-23T00:01:40.702Z,1.90
2018-02-23T00:02:42.198Z,1.90
2018-02-23T00:03:44.334Z,1.90
2018-02-23T00:04:45.718Z,1.90
2018-02-23T00:05:48.578Z,1.90
2018-02-23T00:06:50.298Z,1.90
2018-02-23T00:07:51.707Z,2.00
2018-02-23T00:08:53.090Z,2.00
2018-02-23T00:09:55.362Z,2.00
2018-02-23T00:10:59.790Z,2.00
2018-02-23T00:12:37.410Z,2.00
2018-02-23T00:13:39.074Z,2.00
2018-02-23T00:14:40.996Z,2.00
2018-02-23T00:15:44.402Z,2.00
2018-02-23T00:17:49.897Z,2.00
2018-02-23T00:18:51.306Z,2.00
2018-02-23T00:19:53.422Z,2.00
2018-02-23T00:20:55.101Z,2.00
2018-02-23T00:21:56.973Z,2.00
2018-02-23T00:22:59.950Z,2.00
2018-02-23T00:24:02.153Z,2.00
2018-02-23T00:25:05.821Z,2.00
2018-02-23T00:26:08.840Z,2.00
2018-02-23T00:27:10.668Z,2.00
2018-02-23T00:28:12.366Z,2.00
2018-02-23T00:29:13.762Z,2.00
2018-02-23T00:30:15.152Z,2.00
2018-02-23T00:31:16.554Z,2.10
2018-02-23T00:32:17.956Z,2.00
2018-02-23T00:33:19.630Z,2.10
2018-02-23T00:34:21.038Z,2.00
2018-02-23T00:35:22.442Z,2.00
2018-02-23T00:36:23.852Z,2.10
2018-02-23T00:37:25.316Z,2.00
2018-02-23T00:38:28.486Z,2.10
2018-02-23T00:39:29.910Z,2.00
2018-02-23T00:40:32.406Z,2.00
2018-02-23T00:41:36.017Z,2.00
2018-02-23T00:42:38.144Z,2.10
2018-02-23T00:43:40.156Z,2.00
2018-02-23T00:44:41.550Z,2.10
2018-02-23T00:45:42.948Z,2.10
2018-02-23T00:46:44.346Z,2.00
2018-02-23T00:47:45.726Z,2.10
2018-02-23T00:48:47.370Z,2.00
2018-02-23T00:49:48.762Z,2.10
2018-02-23T00:50:50.558Z,2.10
2018-02-23T00:52:50.666Z,2.10
2018-02-23T00:53:52.223Z,2.10
2018-02-23T00:54:53.670Z,2.10
2018-02-23T00:55:55.220Z,2.10
2018-02-23T00:56:57.808Z,2.00
2018-02-23T00:57:59.250Z,2.10
2018-02-23T00:59:00.693Z,2.10
2018-02-23T01:01:00.022Z,2.10
2018-02-23T01:02:02.892Z,2.10
2018-02-23T01:03:06.985Z,2.10
2018-02-23T01:04:08.873Z,2.10
2018-02-23T01:05:10.709Z,2.10
2018-02-23T01:06:12.163Z,2.10
2018-02-23T01:07:14.285Z,2.10
2018-02-23T01:08:15.670Z,2.10
2018-02-23T01:09:17.358Z,2.10
2018-02-23T01:10:19.494Z,2.10
2018-02-23T01:11:20.876Z,2.10
2018-02-23T01:12:23.394Z,2.10
2018-02-23T01:13:24.794Z,2.10
2018-02-23T01:14:27.097Z,2.10
2018-02-23T01:15:29.198Z,2.10
2018-02-23T01:16:30.603Z,2.10
2018-02-23T01:17:34.906Z,2.10
2018-02-23T01:18:38.002Z,2.20
2018-02-23T01:19:41.326Z,2.10
2018-02-23T01:20:43.482Z,2.20
2018-02-23T01:21:44.878Z,2.20
2018-02-23T01:22:46.262Z,2.20
2018-02-23T01:23:48.406Z,2.20
2018-02-23T01:24:51.208Z,2.20
2018-02-23T01:25:54.114Z,2.20
2018-02-23T01:26:55.939Z,2.20
2018-02-23T01:27:58.074Z,2.20
2018-02-23T01:28:59.614Z,2.20
2018-02-23T01:30:02.727Z,2.20
2018-02-23T01:31:05.818Z,2.20
2018-02-23T01:32:07.861Z,2.20
2018-02-23T01:33:09.714Z,2.20
2018-02-23T01:34:11.186Z,2.20
2018-02-23T01:35:14.058Z,2.20
2018-02-23T01:36:15.442Z,2.20
2018-02-23T01:37:16.828Z,2.20
2018-02-23T01:38:18.211Z,2.20
2018-02-23T01:39:19.623Z,2.20
2018-02-23T01:40:21.286Z,2.20
2018-02-23T01:41:23.422Z,2.20
2018-02-23T01:42:25.941Z,2.20
2018-02-23T01:43:29.331Z,2.20
2018-02-23T01:44:30.727Z,2.20
2018-02-23T01:45:34.710Z,2.20
2018-02-23T01:46:37.729Z,2.20
2018-02-23T01:47:39.509Z,2.20
2018-02-23T01:48:41.702Z,2.20
2018-02-23T01:49:43.079Z,2.20
2018-02-23T01:52:45.998Z,2.20
2018-02-23T01:53:47.394Z,2.20
2018-02-23T01:54:48.794Z,2.20
2018-02-23T01:55:50.186Z,2.20
2018-02-23T01:56:52.351Z,2.20
2018-02-23T01:57:54.522Z,2.20
2018-02-23T01:58:56.569Z,2.20
2018-02-23T01:59:58.597Z,2.20
2018-02-23T02:01:00.023Z,2.20
2018-02-23T02:02:04.799Z,2.20
2018-02-23T02:03:07.992Z,2.20
2018-02-23T02:05:13.470Z,2.20
2018-02-23T02:06:14.867Z,2.20
2018-02-23T02:07:17.670Z,2.20
2018-02-23T02:08:19.066Z,2.20
2018-02-23T02:09:20.454Z,2.20
2018-02-23T02:10:23.320Z,2.20
2018-02-23T02:11:24.723Z,2.20
2018-02-23T02:12:27.703Z,2.10
2018-02-23T02:14:34.333Z,2.10
2018-02-23T02:15:37.279Z,2.10
2018-02-23T02:16:39.286Z,2.10
2018-02-23T02:17:41.077Z,2.10
2018-02-23T02:19:24.470Z,2.10
2018-02-23T02:20:26.243Z,2.20
2018-02-23T02:21:29.070Z,2.20
2018-02-23T02:22:32.586Z,2.10
2018-02-23T02:23:36.332Z,2.10
2018-02-23T02:24:38.252Z,2.10
2018-02-23T02:26:25.752Z,2.10
2018-02-23T02:27:27.582Z,2.20
2018-02-23T02:28:29.330Z,2.10
2018-02-23T02:29:30.763Z,2.10
2018-02-23T02:30:35.107Z,2.20
2018-02-23T02:31:37.065Z,2.20
2018-02-23T02:32:39.665Z,2.20
2018-02-23T02:33:41.874Z,2.20
2018-02-23T02:35:46.375Z,2.20
2018-02-23T02:36:47.775Z,2.10
2018-02-23T02:37:49.898Z,2.20
2018-02-23T02:38:52.028Z,2.20
2018-02-23T02:39:53.875Z,2.20
2018-02-23T02:40:56.388Z,2.20
2018-02-23T02:41:58.248Z,2.20
2018-02-23T02:42:59.665Z,2.20
2018-02-23T02:44:01.082Z,2.20
2018-02-23T02:54:48.350Z,1.60
2018-02-23T02:55:49.750Z,1.60
2018-02-23T02:56:51.136Z,1.50
2018-02-23T02:57:53.269Z,1.40
2018-02-23T02:58:55.749Z,1.40
2018-02-23T03:01:00.636Z,1.40
2018-02-23T03:02:02.201Z,1.50
2018-02-23T03:03:04.457Z,1.50
2018-02-23T03:04:06.745Z,1.50
2018-02-23T03:05:09.226Z,1.50
2018-02-23T03:06:10.603Z,1.50
2018-02-23T03:07:12.026Z,1.60
2018-02-23T03:08:14.154Z,1.60
2018-02-23T03:09:15.594Z,1.60
2018-02-23T03:10:18.473Z,1.60
2018-02-23T03:11:19.881Z,1.60
2018-02-23T03:12:22.097Z,1.70
2018-02-23T03:13:23.491Z,1.70
2018-02-23T03:14:24.869Z,1.70
2018-02-23T03:15:26.259Z,1.80
2018-02-23T03:16:28.385Z,1.80
2018-02-23T03:17:30.499Z,1.80
2018-02-23T03:18:32.438Z,1.80
2018-02-23T03:19:34.258Z,1.80
2018-02-23T03:20:37.598Z,1.80
2018-02-23T03:21:39.121Z,1.80
2018-02-23T03:22:40.499Z,1.80
2018-02-23T03:23:41.888Z,1.90
2018-02-23T03:24:43.277Z,1.80
2018-02-23T03:25:46.196Z,1.80
2018-02-23T03:26:48.384Z,1.90
2018-02-23T03:27:50.474Z,1.90
2018-02-23T03:28:52.066Z,1.90
2018-02-23T03:29:53.609Z,1.90
2018-02-23T03:30:55.266Z,1.90
2018-02-23T03:31:56.678Z,1.70
2018-02-23T03:32:58.055Z,1.90
2018-02-23T03:33:59.443Z,1.90
2018-02-23T03:35:00.852Z,1.90
2018-02-23T03:36:03.117Z,1.90
2018-02-23T03:37:05.645Z,1.90
2018-02-23T03:38:07.217Z,1.90
2018-02-23T03:39:08.799Z,1.90
2018-02-23T03:40:10.189Z,1.90
2018-02-23T03:41:11.845Z,1.90
2018-02-23T03:42:13.246Z,1.80
2018-02-23T03:43:15.362Z,1.80
2018-02-23T03:44:16.748Z,1.80
2018-02-23T03:45:19.239Z,1.80
2018-02-23T03:46:20.647Z,1.80
2018-02-23T03:47:22.189Z,1.80
2018-02-23T03:48:23.823Z,1.90
2018-02-23T03:49:25.985Z,1.80
2018-02-23T03:50:27.391Z,1.90
2018-02-23T03:51:29.078Z,1.90
2018-02-23T03:52:31.455Z,1.90
2018-02-23T03:53:33.457Z,1.90
2018-02-23T03:54:35.394Z,1.90
2018-02-23T03:55:38.474Z,1.80
2018-02-23T03:56:40.027Z,1.80
2018-02-23T03:57:41.415Z,1.90
2018-02-23T03:58:42.793Z,1.80
2018-02-23T03:59:44.187Z,1.80
2018-02-23T04:00:45.581Z,1.80
2018-02-23T04:01:48.473Z,1.80
2018-02-23T04:02:49.851Z,1.80
2018-02-23T04:03:51.252Z,1.80
2018-02-23T04:04:52.645Z,1.90
2018-02-23T04:05:55.887Z,1.80
2018-02-23T04:06:57.681Z,1.80
2018-02-23T04:09:03.515Z,1.90
2018-02-23T04:10:05.709Z,1.80
2018-02-23T04:11:08.559Z,1.80
2018-02-23T04:12:10.259Z,1.80
2018-02-23T04:13:11.958Z,1.80
2018-02-23T04:14:13.348Z,1.80
2018-02-23T04:15:15.489Z,1.80
2018-02-23T04:16:18.385Z,1.80
2018-02-23T04:17:20.504Z,1.80
2018-02-23T04:19:26.681Z,1.80
2018-02-23T04:20:28.146Z,1.80
2018-02-23T04:21:29.513Z,1.40
2018-02-23T04:22:30.895Z,1.80
2018-02-23T04:25:37.081Z,1.90
2018-02-23T04:26:38.773Z,1.90
2018-02-23T04:27:40.925Z,1.90
2018-02-23T04:28:42.373Z,1.90
2018-02-23T04:29:43.759Z,1.80
2018-02-23T04:30:45.881Z,1.80
2018-02-23T04:31:47.292Z,1.90
2018-02-23T04:32:49.404Z,1.80
2018-02-23T04:33:51.113Z,1.90
2018-02-23T04:34:54.403Z,1.80
2018-02-23T04:35:56.249Z,1.90
2018-02-23T04:37:32.438Z,1.90
2018-02-23T04:38:36.145Z,1.90
2018-02-23T04:39:39.418Z,1.90
2018-02-23T04:40:41.167Z,1.90
2018-02-23T04:41:42.562Z,1.90
2018-02-23T04:42:43.955Z,1.90
2018-02-23T04:43:45.353Z,1.90
2018-02-23T04:44:47.047Z,1.90
2018-02-23T04:45:48.436Z,1.90
2018-02-23T04:47:34.187Z,1.90
2018-02-23T04:48:37.058Z,1.90
2018-02-23T04:49:38.836Z,1.90
2018-02-23T04:51:44.103Z,1.90
2018-02-23T04:52:46.222Z,1.90
2018-02-23T04:53:47.612Z,1.90
2018-02-23T04:54:48.984Z,1.90
2018-02-23T04:55:51.145Z,1.90
2018-02-23T04:56:53.273Z,1.90
2018-02-23T04:57:55.830Z,1.90
2018-02-23T04:58:57.423Z,1.90
2018-02-23T05:00:57.569Z,1.90
2018-02-23T05:01:59.005Z,1.90
2018-02-23T05:03:01.699Z,1.90
2018-02-23T05:04:04.548Z,1.90
2018-02-23T05:05:07.124Z,1.90
2018-02-23T05:06:09.842Z,1.90
2018-02-23T05:07:11.267Z,1.90
2018-02-23T05:08:12.685Z,1.90
2018-02-23T05:09:14.070Z,1.90
2018-02-23T05:10:15.453Z,1.90
2018-02-23T05:11:18.361Z,1.90
2018-02-23T05:12:19.752Z,1.90
2018-02-23T05:13:21.146Z,1.90
2018-02-23T05:14:23.307Z,1.90
2018-02-23T05:15:25.035Z,1.90
2018-02-23T05:16:26.973Z,1.90
2018-02-23T05:17:28.578Z,1.90
2018-02-23T05:18:29.978Z,1.90
2018-02-23T05:19:31.783Z,1.90
2018-02-23T05:20:35.384Z,1.90
2018-02-23T05:21:37.337Z,1.90
2018-02-23T05:22:39.069Z,1.90
2018-02-23T05:23:41.438Z,1.90
2018-02-23T05:24:42.831Z,1.90
2018-02-23T05:25:44.943Z,1.90
2018-02-23T05:26:46.349Z,1.90
2018-02-23T05:27:47.726Z,1.90
2018-02-23T05:28:49.896Z,1.90
2018-02-23T05:29:51.287Z,1.90
2018-02-23T05:30:52.682Z,1.90
2018-02-23T05:31:55.506Z,1.90
2018-02-23T05:32:57.151Z,1.90
2018-02-23T05:33:58.544Z,1.90
2018-02-23T05:35:02.980Z,1.90
2018-02-23T05:36:05.813Z,1.90
2018-02-23T05:37:08.831Z,1.80
2018-02-23T05:38:11.435Z,1.90
2018-02-23T05:39:12.826Z,1.90
2018-02-23T05:40:14.217Z,1.80
2018-02-23T05:41:16.345Z,1.80
2018-02-23T05:42:17.771Z,1.90
2018-02-23T05:43:19.197Z,1.80
2018-02-23T05:44:20.567Z,1.80
2018-02-23T05:45:23.464Z,1.80
2018-02-23T05:46:25.335Z,1.80
2018-02-23T05:47:28.585Z,1.70
2018-02-23T05:48:29.974Z,1.70
2018-02-23T05:49:33.749Z,1.80
2018-02-23T05:50:35.986Z,1.70
2018-02-23T05:51:38.778Z,1.70
2018-02-23T05:52:40.827Z,1.70
2018-02-23T05:54:39.565Z,1.80
2018-02-23T05:55:41.087Z,1.70
2018-02-23T05:56:42.571Z,1.70
2018-02-23T05:57:43.978Z,1.70
2018-02-23T05:58:45.371Z,1.80
2018-02-23T05:59:46.779Z,1.80
2018-02-23T06:00:48.177Z,1.70
2018-02-23T06:01:49.571Z,1.70
2018-02-23T06:02:50.981Z,1.70
2018-02-23T06:04:56.155Z,1.70
2018-02-23T06:06:52.422Z,1.70
2018-02-23T06:07:54.035Z,1.70
2018-02-23T06:10:42.649Z,1.80
2018-02-23T06:11:44.037Z,1.80
2018-02-23T06:13:37.292Z,1.70
2018-02-23T06:14:40.603Z,1.70
2018-02-23T06:15:48.224Z,1.70
2018-02-23T06:16:49.615Z,1.70
2018-02-23T06:17:57.289Z,1.70
2018-02-23T06:20:08.131Z,1.70
2018-02-23T06:21:09.789Z,1.80
2018-02-23T06:23:14.315Z,1.80
2018-02-23T06:24:15.732Z,1.80
2018-02-23T06:25:17.140Z,1.80
2018-02-23T06:26:18.546Z,1.80
2018-02-23T06:27:19.971Z,1.80
2018-02-23T06:29:24.963Z,1.80
2018-02-23T06:30:26.715Z,1.80
2018-02-23T06:31:29.690Z,1.80
2018-02-23T06:33:36.907Z,1.80
2018-02-23T06:34:38.923Z,1.80
2018-02-23T06:35:40.551Z,1.80
2018-02-23T06:37:45.303Z,1.80
2018-02-23T06:38:46.787Z,1.90
2018-02-23T06:39:48.299Z,1.80
2018-02-23T06:40:50.619Z,1.80
2018-02-23T06:41:52.224Z,1.80
2018-02-23T06:45:01.723Z,1.80
2018-02-23T06:46:04.311Z,1.90
2018-02-23T06:47:23.682Z,1.90
2018-02-23T06:48:25.731Z,1.90
2018-02-23T06:49:28.902Z,1.90
2018-02-23T06:50:31.207Z,1.90
2018-02-23T06:51:34.193Z,1.90
2018-02-23T06:53:13.982Z,1.90
2018-02-23T06:54:15.401Z,1.90
2018-02-23T06:55:16.804Z,1.80
2018-02-23T06:56:18.471Z,1.90
2018-02-23T06:57:19.879Z,1.80
2018-02-23T06:58:21.279Z,1.80
2018-02-23T06:59:22.660Z,1.80
2018-02-23T07:00:24.374Z,1.80
2018-02-23T07:01:26.347Z,1.80
2018-02-23T07:02:27.908Z,1.80
2018-02-23T07:03:29.324Z,1.80
2018-02-23T07:04:31.647Z,1.80
2018-02-23T07:05:34.422Z,1.80
2018-02-23T07:06:37.846Z,1.80
2018-02-23T07:07:40.405Z,1.80
2018-02-23T07:08:41.807Z,1.80
2018-02-23T07:09:43.935Z,1.80
2018-02-23T07:10:45.325Z,1.80
2018-02-23T07:11:46.726Z,1.80
2018-02-23T07:12:48.122Z,1.80
2018-02-23T07:13:50.289Z,1.80
2018-02-23T07:14:51.667Z,1.80
2018-02-23T07:15:53.068Z,1.80
2018-02-23T07:16:55.053Z,1.70
2018-02-23T07:19:00.225Z,1.80
2018-02-23T07:20:03.777Z,1.70
2018-02-23T07:21:06.411Z,1.70
2018-02-23T07:22:08.027Z,1.70
2018-02-23T07:23:09.431Z,1.70
2018-02-23T07:24:11.087Z,1.70
2018-02-23T07:25:12.478Z,1.70
2018-02-23T07:26:14.598Z,1.70
2018-02-23T07:27:16.122Z,1.70
2018-02-23T07:28:18.853Z,1.70
2018-02-23T07:29:20.261Z,1.70
2018-02-23T07:30:23.923Z,1.70
2018-02-23T07:31:25.835Z,1.70
2018-02-23T07:33:30.945Z,1.80
2018-02-23T07:36:40.215Z,1.80
2018-02-23T07:37:41.897Z,1.80
2018-02-23T07:38:44.047Z,1.70
2018-02-23T07:39:46.186Z,1.70
2018-02-23T07:40:47.594Z,1.70
2018-02-23T07:41:50.103Z,1.70
2018-02-23T07:42:51.505Z,1.70
2018-02-23T07:43:53.742Z,1.70
2018-02-23T07:45:59.445Z,1.70
2018-02-23T07:47:02.210Z,1.70
2018-02-23T07:48:05.287Z,1.70
2018-02-23T07:50:10.567Z,1.70
2018-02-23T07:51:12.774Z,1.70
2018-02-23T07:52:14.933Z,1.70
2018-02-23T07:53:16.375Z,1.70
2018-02-23T07:54:17.777Z,1.70
2018-02-23T07:55:19.168Z,1.70
2018-02-23T07:56:20.581Z,1.70
2018-02-23T07:58:26.635Z,1.70
2018-02-23T08:00:33.982Z,1.70
2018-02-23T08:01:37.387Z,1.70
2018-02-23T08:02:39.227Z,1.70
2018-02-23T08:03:40.730Z,1.70
2018-02-23T08:04:43.265Z,1.70
2018-02-23T08:05:45.781Z,1.70
2018-02-23T08:06:48.337Z,1.70
2018-02-23T08:07:50.464Z,1.70
2018-02-23T08:08:51.871Z,1.70
2018-02-23T08:09:53.251Z,1.80
2018-02-23T08:10:56.278Z,1.70
2018-02-23T08:11:58.952Z,1.70
2018-02-23T08:13:00.878Z,1.80
2018-02-23T08:14:04.243Z,1.80
2018-02-23T08:15:07.715Z,1.80
2018-02-23T08:16:09.523Z,1.80
2018-02-23T08:17:10.933Z,1.80
2018-02-23T08:19:15.711Z,1.80
2018-02-23T08:21:20.215Z,1.80
2018-02-23T08:22:21.973Z,1.80
2018-02-23T08:23:24.099Z,1.80
2018-02-23T08:24:26.655Z,1.80
2018-02-23T08:25:28.831Z,1.80
2018-02-23T08:26:30.240Z,1.80
2018-02-23T08:28:37.709Z,1.80
2018-02-23T08:29:39.691Z,1.80
2018-02-23T08:30:41.836Z,1.70
2018-02-23T08:31:43.227Z,1.80
2018-02-23T08:33:47.697Z,1.80
2018-02-23T08:34:49.381Z,1.80
2018-02-23T08:35:51.518Z,1.70
2018-02-23T08:36:53.651Z,1.80
2018-02-23T08:37:55.418Z,1.80
2018-02-23T08:38:57.309Z,1.80
2018-02-23T08:39:58.741Z,1.80
2018-02-23T08:41:00.118Z,1.70
2018-02-23T08:42:03.201Z,1.70
2018-02-23T08:43:06.102Z,1.70
2018-02-23T08:44:09.302Z,1.70
2018-02-23T08:45:11.642Z,1.70
2018-02-23T08:49:24.064Z,1.70
2018-02-23T08:50:26.557Z,1.70
2018-02-23T08:51:29.326Z,1.70
2018-02-23T08:52:33.143Z,1.70
2018-02-23T08:53:36.398Z,1.70
2018-02-23T08:54:39.554Z,1.70
2018-02-23T08:55:40.997Z,1.70
2018-02-23T08:56:42.395Z,1.70
2018-02-23T08:59:53.411Z,1.70
2018-02-23T09:00:55.399Z,1.70
2018-02-23T09:01:59.299Z,1.70
2018-02-23T09:04:06.929Z,1.80
2018-02-23T09:05:08.394Z,1.70
2018-02-23T09:06:10.073Z,1.80
2018-02-23T09:07:12.965Z,1.80
2018-02-23T09:09:17.421Z,1.80
2018-02-23T09:11:21.939Z,1.80
2018-02-23T09:12:23.683Z,1.80
2018-02-23T09:13:26.297Z,1.80
2018-02-23T09:15:34.627Z,1.80
2018-02-23T09:16:37.335Z,1.90
2018-02-23T09:17:39.397Z,1.90
2018-02-23T09:18:40.820Z,1.80
2018-02-23T09:19:42.947Z,1.90
2018-02-23T09:20:44.335Z,1.90
2018-02-23T09:21:46.846Z,1.90
2018-02-23T09:22:48.233Z,1.90
2018-02-23T09:23:49.629Z,1.90
2018-02-23T09:24:51.030Z,1.90
2018-02-23T09:25:52.405Z,1.90
2018-02-23T09:26:55.206Z,1.90
2018-02-23T09:27:58.516Z,1.90
2018-02-23T09:30:07.528Z,1.90
2018-02-23T09:31:09.400Z,1.90
2018-02-23T09:32:25.929Z,1.90
2018-02-23T09:34:42.702Z,2.00
2018-02-23T09:35:44.275Z,2.00
2018-02-23T09:37:49.927Z,1.90
2018-02-23T09:39:54.639Z,2.00
2018-02-23T09:40:56.723Z,2.00
2018-02-23T09:43:03.811Z,2.00
2018-02-23T09:45:09.241Z,2.00
2018-02-23T09:46:11.042Z,2.10
2018-02-23T09:47:13.150Z,2.00
2018-02-23T09:48:14.565Z,2.10
2018-02-23T09:49:58.755Z,2.10
2018-02-23T09:51:00.145Z,2.10
2018-02-23T09:52:05.511Z,2.10
2018-02-23T09:53:08.119Z,2.10
2018-02-23T09:54:10.003Z,2.10
2018-02-23T09:55:11.486Z,2.20
2018-02-23T09:56:12.900Z,2.20
2018-02-23T09:57:14.295Z,2.20
2018-02-23T09:58:15.693Z,2.20
2018-02-23T10:00:20.493Z,2.20
2018-02-23T10:01:21.902Z,2.30
2018-02-23T10:02:23.291Z,2.30
2018-02-23T10:03:25.857Z,2.30
2018-02-23T10:05:30.543Z,2.30
2018-02-23T10:08:39.925Z,2.30
2018-02-23T10:09:42.087Z,2.30
2018-02-23T10:11:46.594Z,2.30
2018-02-23T10:12:49.116Z,2.30
2018-02-23T10:13:50.505Z,2.30
2018-02-23T10:14:51.944Z,2.30
2018-02-23T10:15:54.300Z,2.40
2018-02-23T10:16:56.163Z,2.40
2018-02-23T10:17:57.853Z,2.40
2018-02-23T10:18:59.283Z,2.40
2018-02-23T10:20:02.386Z,2.40
2018-02-23T10:22:02.439Z,2.40
2018-02-23T10:25:11.798Z,2.40
2018-02-23T10:26:13.927Z,2.40
2018-02-23T10:27:15.335Z,2.40
2018-02-23T10:28:16.732Z,2.40
2018-02-23T10:29:18.855Z,2.50
2018-02-23T10:30:20.329Z,2.50
2018-02-23T10:31:21.735Z,2.50
2018-02-23T10:32:23.138Z,2.50
2018-02-23T10:33:24.791Z,2.50
2018-02-23T10:35:31.013Z,2.50
2018-02-23T10:36:33.796Z,2.30
2018-02-23T10:37:36.523Z,2.50
2018-02-23T10:39:57.253Z,2.50
2018-02-23T10:40:59.491Z,2.50
2018-02-23T10:42:00.909Z,2.50
2018-02-23T10:46:15.399Z,2.60
2018-02-23T10:47:17.260Z,2.60
2018-02-23T10:48:20.083Z,2.60
2018-02-23T10:49:23.388Z,2.60
2018-02-23T10:51:28.952Z,2.70
2018-02-23T10:52:30.342Z,2.60
2018-02-23T10:53:33.230Z,2.70
2018-02-23T10:54:36.385Z,2.70
2018-02-23T10:55:39.325Z,2.70
2018-02-23T10:56:41.034Z,2.70
2018-02-23T10:57:42.462Z,2.70
2018-02-23T10:58:43.919Z,2.80
2018-02-23T10:59:45.345Z,2.70
2018-02-23T11:00:46.733Z,2.70
2018-02-23T11:01:48.172Z,2.80
2018-02-23T11:02:49.591Z,2.80
2018-02-23T11:04:54.189Z,2.80
2018-02-23T11:05:56.003Z,2.80
2018-02-23T11:06:57.949Z,2.80
2018-02-23T11:07:59.420Z,2.80
2018-02-23T11:10:06.173Z,2.80
2018-02-23T11:11:07.965Z,2.80
2018-02-23T11:12:09.895Z,2.80
2018-02-23T11:13:11.347Z,2.70
2018-02-23T11:14:12.747Z,2.70
2018-02-23T11:15:14.175Z,2.70
2018-02-23T11:17:18.777Z,2.70
2018-02-23T11:18:20.177Z,2.70
2018-02-23T11:19:21.585Z,2.80
2018-02-23T11:20:23.749Z,2.80
2018-02-23T11:22:28.994Z,2.70
2018-02-23T11:23:30.392Z,2.80
2018-02-23T11:24:34.053Z,2.70
2018-02-23T11:25:36.957Z,2.80
2018-02-23T11:26:39.478Z,2.70
2018-02-23T11:27:41.197Z,2.80
2018-02-23T11:30:48.850Z,2.80
2018-02-23T11:31:50.983Z,2.80
2018-02-23T11:32:53.129Z,2.80
2018-02-23T11:33:54.940Z,2.80
2018-02-23T11:34:56.921Z,2.80
2018-02-23T11:35:59.182Z,2.80
2018-02-23T11:40:12.983Z,2.80
2018-02-23T11:41:14.383Z,2.80
2018-02-23T11:43:19.151Z,2.80
2018-02-23T11:44:20.545Z,2.80
2018-02-23T11:45:23.028Z,2.80
2018-02-23T11:47:28.143Z,2.80
2018-02-23T11:48:30.346Z,2.80
2018-02-23T11:49:33.113Z,2.70
2018-02-23T11:50:36.887Z,2.70
2018-02-23T11:51:39.623Z,2.70
2018-02-23T11:53:45.255Z,2.70
2018-02-23T11:54:46.669Z,2.70
2018-02-23T11:56:51.956Z,2.70
2018-02-23T11:57:53.403Z,2.60
2018-02-23T11:58:54.988Z,2.60
2018-02-23T11:59:56.684Z,2.60
2018-02-23T12:00:58.226Z,2.60
2018-02-23T12:01:59.625Z,2.60
2018-02-23T12:03:01.015Z,2.60
2018-02-23T12:04:03.398Z,2.60
2018-02-23T12:06:09.194Z,2.60
2018-02-23T12:07:10.581Z,2.60
2018-02-23T12:09:15.098Z,2.60
2018-02-23T12:10:16.525Z,2.60
2018-02-23T12:11:19.047Z,2.60
2018-02-23T12:12:20.449Z,2.70
2018-02-23T12:13:21.835Z,2.60
2018-02-23T12:14:24.494Z,2.60
2018-02-23T12:15:26.187Z,2.70
2018-02-23T12:16:27.915Z,2.70
2018-02-23T12:18:33.751Z,2.70
2018-02-23T12:19:36.201Z,2.70
2018-02-23T12:20:38.125Z,2.70
2018-02-23T12:21:40.052Z,2.70
2018-02-23T12:23:44.588Z,2.70
2018-02-23T12:24:46.003Z,2.70
2018-02-23T12:25:48.161Z,2.70
2018-02-23T12:26:49.565Z,2.70
2018-02-23T12:27:50.962Z,2.70
2018-02-23T12:29:56.079Z,2.70
2018-02-23T12:30:57.853Z,2.80
2018-02-23T12:33:03.983Z,2.70
2018-02-23T12:35:09.292Z,2.70
2018-02-23T12:36:10.766Z,2.70
2018-02-23T12:37:12.159Z,2.70
2018-02-23T12:38:13.560Z,2.70
2018-02-23T12:39:14.970Z,2.70
2018-02-23T12:41:19.479Z,2.70
2018-02-23T12:42:20.899Z,2.70
2018-02-23T12:43:22.292Z,2.70
2018-02-23T12:44:23.674Z,2.70
2018-02-23T12:45:27.031Z,2.70
2018-02-23T12:46:29.179Z,2.70
2018-02-23T12:47:32.217Z,2.70
2018-02-23T12:49:39.609Z,2.70
2018-02-23T12:50:41.035Z,2.70
2018-02-23T12:51:43.543Z,2.70
2018-02-23T12:52:44.990Z,2.70
2018-02-23T12:53:46.393Z,2.70
2018-02-23T12:54:47.782Z,2.70
2018-02-23T12:55:49.206Z,2.70
2018-02-23T12:56:50.618Z,2.70
2018-02-23T12:57:53.492Z,2.70
2018-02-23T12:58:55.037Z,2.80
2018-02-23T13:00:59.995Z,2.70
2018-02-23T13:03:07.499Z,2.80
2018-02-23T13:04:09.242Z,2.80
2018-02-23T13:05:11.023Z,2.80
2018-02-23T13:06:13.565Z,2.80
2018-02-23T13:07:15.694Z,2.80
2018-02-23T13:09:20.207Z,2.80
2018-02-23T13:11:26.479Z,2.70
2018-02-23T13:12:28.385Z,2.80
2018-02-23T13:13:30.566Z,2.70
2018-02-23T13:16:45.239Z,2.70
2018-02-23T13:17:47.753Z,2.70
2018-02-23T13:18:49.175Z,2.70
2018-02-23T13:19:51.322Z,2.70
2018-02-23T13:20:52.921Z,2.80
2018-02-23T13:21:56.205Z,2.70
2018-02-23T13:24:00.871Z,2.80
2018-02-23T13:25:06.143Z,2.70
2018-02-23T13:27:17.849Z,2.70
2018-02-23T13:31:20.483Z,2.70
2018-02-23T13:32:21.917Z,2.80
2018-02-23T13:33:23.344Z,2.70
2018-02-23T13:34:25.229Z,2.70
2018-02-23T13:36:30.155Z,2.70
2018-02-23T13:37:33.291Z,2.80
2018-02-23T13:38:36.253Z,2.80
2018-02-23T13:39:38.983Z,2.80
2018-02-23T13:40:40.448Z,2.80
2018-02-23T13:41:41.871Z,2.80
2018-02-23T13:42:44.423Z,2.80
2018-02-23T13:43:46.545Z,2.80
2018-02-23T13:44:47.947Z,2.80
2018-02-23T13:45:49.383Z,2.80
2018-02-23T13:46:50.785Z,2.90
2018-02-23T13:47:52.217Z,2.90
2018-02-23T13:48:54.398Z,2.90
2018-02-23T13:49:56.211Z,2.90
2018-02-23T13:50:58.143Z,2.90
2018-02-23T13:51:59.602Z,2.90
2018-02-23T13:53:01.239Z,2.90
2018-02-23T13:54:10.806Z,2.90
2018-02-23T13:55:12.214Z,2.90
2018-02-23T13:58:21.009Z,2.90
2018-02-23T13:59:22.441Z,2.80
2018-02-23T14:00:23.870Z,2.90
2018-02-23T14:01:25.815Z,2.90
2018-02-23T14:02:27.768Z,2.90
2018-02-23T14:03:29.363Z,2.90
2018-02-23T14:04:30.780Z,2.90
2018-02-23T14:05:36.265Z,2.90
2018-02-23T14:06:38.069Z,2.90
2018-02-23T14:07:42.580Z,2.90
2018-02-23T14:08:44.021Z,2.90
2018-02-23T14:09:45.453Z,2.90
2018-02-23T14:10:47.975Z,2.90
2018-02-23T14:11:49.379Z,2.90
2018-02-23T14:13:53.924Z,2.90
2018-02-23T14:15:59.573Z,2.90
2018-02-23T14:17:00.989Z,2.90
2018-02-23T14:18:04.723Z,2.90
2018-02-23T14:19:07.503Z,2.90
2018-02-23T14:20:09.415Z,2.90
2018-02-23T14:23:17.102Z,3.00
2018-02-23T14:24:18.530Z,2.90
2018-02-23T14:25:19.927Z,2.90
2018-02-23T14:26:21.343Z,2.90
2018-02-23T14:28:26.507Z,2.90
2018-02-23T14:29:28.746Z,2.90
2018-02-23T14:30:30.142Z,3.00
2018-02-23T14:31:34.103Z,2.90
2018-02-23T14:32:37.062Z,3.00
2018-02-23T14:33:38.993Z,3.00
2018-02-23T14:34:41.530Z,3.00
2018-02-23T14:35:44.034Z,3.00
2018-02-23T14:36:45.430Z,3.00
2018-02-23T14:38:51.409Z,3.00
2018-02-23T14:39:53.069Z,3.00
2018-02-23T14:40:55.112Z,3.00
2018-02-23T14:43:00.196Z,3.00
2018-02-23T14:44:03.448Z,3.00
2018-02-23T14:45:07.078Z,3.00
2018-02-23T14:47:13.365Z,3.00
2018-02-23T14:48:33.893Z,3.00
2018-02-23T14:52:08.831Z,2.90
2018-02-23T14:53:10.641Z,2.90
2018-02-23T14:54:12.765Z,2.90
2018-02-23T14:55:14.158Z,2.90
2018-02-23T14:56:15.596Z,2.90
2018-02-23T14:58:20.109Z,2.90
2018-02-23T14:59:21.496Z,2.90
2018-02-23T15:00:22.900Z,2.90
2018-02-23T15:03:30.955Z,2.90
2018-02-23T15:04:35.165Z,2.90
2018-02-23T15:06:40.792Z,3.00
2018-02-23T15:07:42.187Z,3.00
2018-02-23T15:09:46.733Z,2.90
2018-02-23T15:11:53.085Z,3.00
2018-02-23T15:12:54.737Z,3.00
2018-02-23T15:17:10.222Z,3.00
2018-02-23T15:18:12.794Z,3.00
2018-02-23T15:19:14.202Z,3.00
2018-02-23T15:20:16.714Z,3.00
2018-02-23T15:22:22.719Z,3.00
2018-02-23T15:23:24.127Z,3.00
2018-02-23T15:24:26.009Z,3.00
2018-02-23T15:26:30.722Z,3.00
2018-02-23T15:28:39.419Z,3.00
2018-02-23T15:29:41.146Z,3.00
2018-02-23T15:34:18.082Z,2.90
2018-02-23T15:35:19.502Z,2.90
2018-02-23T15:36:20.923Z,2.90
2018-02-23T15:37:23.794Z,2.80
2018-02-23T15:38:25.811Z,2.90
2018-02-23T15:39:29.141Z,2.80
2018-02-23T15:40:30.571Z,2.80
2018-02-23T15:41:34.436Z,2.80
2018-02-23T15:44:43.467Z,2.90
2018-02-23T15:45:44.890Z,2.80
2018-02-23T15:46:47.806Z,2.80
2018-02-23T15:47:59.978Z,2.80
2018-02-23T15:51:25.035Z,2.80
2018-02-23T15:52:26.898Z,2.90
2018-02-23T15:53:28.363Z,2.80
2018-02-23T15:54:29.807Z,2.70
2018-02-23T15:55:32.228Z,2.80
2018-02-23T16:00:18.791Z,2.80
2018-02-23T16:01:20.238Z,2.80
2018-02-23T16:02:21.662Z,2.80
2018-02-23T16:03:23.157Z,2.80
2018-02-23T16:04:24.582Z,2.80
2018-02-23T16:06:31.796Z,2.80
2018-02-23T16:07:36.464Z,2.80
2018-02-23T16:09:43.242Z,2.80
2018-02-23T16:10:44.646Z,2.80
2018-02-23T16:15:58.132Z,2.80
2018-02-23T16:16:59.598Z,2.80
2018-02-23T16:18:05.124Z,2.70
2018-02-23T16:19:07.450Z,2.80
2018-02-23T16:20:09.251Z,2.80
2018-02-23T16:21:11.257Z,2.80
2018-02-23T16:23:15.766Z,2.70
2018-02-23T16:24:17.916Z,2.70
2018-02-23T16:25:19.314Z,2.70
2018-02-23T16:26:20.742Z,2.70
2018-02-23T16:27:22.153Z,2.70
2018-02-23T16:28:25.145Z,2.70
2018-02-23T16:29:27.506Z,7.10
2018-02-23T16:30:29.024Z,2.70
2018-02-23T16:31:30.438Z,2.70
2018-02-23T16:33:38.672Z,2.70
2018-02-23T16:34:41.243Z,2.70
2018-02-23T16:35:44.134Z,2.70